createdAt,value
2019-02-02T00:01:42.288Z,33.77
2019-02-02T00:04:12.147Z,36.50
2019-02-02T00:06:41.923Z,35.43
2019-02-02T00:09:11.758Z,35.90
2019-02-02T00:11:41.510Z,34.17
2019-02-02T00:14:11.289Z,34.47
2019-02-02T00:16:41.100Z,35.27
2019-02-02T00:19:10.905Z,34.93
2019-02-02T00:21:40.710Z,35.27
2019-02-02T00:24:10.469Z,35.43
2019-02-02T00:26:40.238Z,36.47
2019-02-02T00:29:10.002Z,35.97
2019-02-02T00:31:39.769Z,37.13
2019-02-02T00:34:09.536Z,35.00
2019-02-02T00:36:39.297Z,34.37
2019-02-02T00:39:09.276Z,35.97
2019-02-02T00:41:39.031Z,36.17
2019-02-02T00:44:10.578Z,36.30
2019-02-02T00:46:41.937Z,37.00
2019-02-02T00:49:11.715Z,35.10
2019-02-02T00:51:41.498Z,35.83
2019-02-02T00:54:11.256Z,36.43
2019-02-02T00:56:40.982Z,34.03
2019-02-02T00:59:10.851Z,34.10
2019-02-02T01:01:40.706Z,34.80
2019-02-02T01:04:10.438Z,33.57
2019-02-02T01:06:40.429Z,34.80
2019-02-02T01:09:11.986Z,34.23
2019-02-02T01:11:41.726Z,35.57
2019-02-02T01:14:11.560Z,35.17
2019-02-02T01:16:41.280Z,36.33
2019-02-02T01:19:11.023Z,35.50
2019-02-02T01:21:40.753Z,34.03
2019-02-02T01:24:10.569Z,34.13
2019-02-02T01:26:40.300Z,34.73
2019-02-02T01:29:10.056Z,34.97
2019-02-02T01:31:39.796Z,34.97
2019-02-02T01:34:09.545Z,33.93
2019-02-02T01:36:39.282Z,35.20
2019-02-02T01:39:09.026Z,38.73
2019-02-02T01:41:38.763Z,39.07
2019-02-02T01:44:08.524Z,36.60
2019-02-02T01:46:38.257Z,36.50
2019-02-02T01:49:08.096Z,36.33
2019-02-02T01:51:37.828Z,35.87
2019-02-02T01:54:07.586Z,33.13
2019-02-02T01:56:37.310Z,37.07
2019-02-02T01:59:07.133Z,36.47
2019-02-02T02:01:36.894Z,37.43
2019-02-02T02:04:06.642Z,34.93
2019-02-02T02:06:36.371Z,35.90
2019-02-02T02:09:06.594Z,36.07
2019-02-02T02:11:36.318Z,35.83
2019-02-02T02:14:06.077Z,34.50
2019-02-02T02:16:35.799Z,35.20
2019-02-02T02:19:05.559Z,35.97
2019-02-02T02:21:35.281Z,35.17
2019-02-02T02:24:05.096Z,34.67
2019-02-02T02:26:34.816Z,35.37
2019-02-02T02:29:05.632Z,33.80
2019-02-02T02:31:35.360Z,33.57
2019-02-02T02:34:05.115Z,33.30
2019-02-02T02:36:34.840Z,33.67
2019-02-02T02:39:07.229Z,35.27
2019-02-02T02:41:36.963Z,34.80
2019-02-02T02:44:06.713Z,33.03
2019-02-02T02:46:36.457Z,34.10
2019-02-02T02:49:06.219Z,34.13
2019-02-02T02:51:35.944Z,34.87
2019-02-02T02:54:05.846Z,34.87
2019-02-02T02:56:35.634Z,35.67
2019-02-02T02:59:05.587Z,36.07
2019-02-02T03:01:35.329Z,35.37
2019-02-02T03:04:05.088Z,34.83
2019-02-02T03:06:34.836Z,33.10
2019-02-02T03:09:07.354Z,33.47
2019-02-02T03:11:37.074Z,33.17
2019-02-02T03:14:06.821Z,33.13
2019-02-02T03:16:36.550Z,34.47
2019-02-02T03:19:06.317Z,33.10
2019-02-02T03:21:36.043Z,35.30
2019-02-02T03:24:05.794Z,33.30
2019-02-02T03:26:35.525Z,34.57
2019-02-02T03:29:05.335Z,31.67
2019-02-02T03:31:35.090Z,35.07
2019-02-02T03:34:04.831Z,33.60
2019-02-02T03:36:34.555Z,34.80
2019-02-02T03:39:04.490Z,33.37
2019-02-02T03:41:34.229Z,33.07
2019-02-02T03:44:04.014Z,32.30
2019-02-02T03:46:33.733Z,33.20
2019-02-02T03:49:03.482Z,32.33
2019-02-02T03:51:33.204Z,32.60
2019-02-02T03:54:08.837Z,34.30
2019-02-02T03:56:34.390Z,31.07
2019-02-02T03:59:06.701Z,32.97
2019-02-02T04:01:35.584Z,32.93
2019-02-02T04:04:05.349Z,32.70
2019-02-02T04:06:35.091Z,32.10
2019-02-02T04:09:06.612Z,33.10
2019-02-02T04:11:36.348Z,31.23
2019-02-02T04:14:06.114Z,32.07
2019-02-02T04:16:35.832Z,32.33
2019-02-02T04:19:05.592Z,32.40
2019-02-02T04:21:35.325Z,33.43
2019-02-02T04:24:05.077Z,30.93
2019-02-02T04:26:34.802Z,34.47
2019-02-02T04:29:04.571Z,32.93
2019-02-02T04:31:34.299Z,31.57
2019-02-02T04:34:04.054Z,32.20
2019-02-02T04:36:33.785Z,34.53
2019-02-02T04:39:04.927Z,33.00
2019-02-02T04:41:35.649Z,33.17
2019-02-02T04:44:05.396Z,34.17
2019-02-02T04:46:35.109Z,35.00
2019-02-02T04:49:04.868Z,33.33
2019-02-02T04:51:34.589Z,34.70
2019-02-02T04:54:04.374Z,33.73
2019-02-02T04:56:34.126Z,32.13
2019-02-02T04:59:03.921Z,34.10
2019-02-02T05:01:33.662Z,34.07
2019-02-02T05:04:03.403Z,33.90
2019-02-02T05:06:33.158Z,35.07
2019-02-02T05:09:02.961Z,34.17
2019-02-02T05:11:33.781Z,35.40
2019-02-02T05:14:03.506Z,35.90
2019-02-02T05:16:33.260Z,32.43
2019-02-02T05:19:03.061Z,33.97
2019-02-02T05:21:32.810Z,33.57
2019-02-02T05:24:02.559Z,33.43
2019-02-02T05:26:32.288Z,33.43
2019-02-02T05:29:02.175Z,32.27
2019-02-02T05:31:31.869Z,32.47
2019-02-02T05:34:01.623Z,32.57
2019-02-02T05:36:31.363Z,33.60
2019-02-02T05:39:01.111Z,30.97
2019-02-02T05:41:32.214Z,33.30
2019-02-02T05:44:01.974Z,33.07
2019-02-02T05:46:31.692Z,35.00
2019-02-02T05:49:01.454Z,34.23
2019-02-02T05:51:31.209Z,34.43
2019-02-02T05:54:00.999Z,35.67
2019-02-02T05:56:30.733Z,36.57
2019-02-02T05:59:00.493Z,34.83
2019-02-02T06:01:30.470Z,36.33
2019-02-02T06:04:00.226Z,38.83
2019-02-02T06:06:29.966Z,38.20
2019-02-02T06:08:59.791Z,38.57
2019-02-02T06:11:29.516Z,40.53
2019-02-02T06:13:59.264Z,40.00
2019-02-02T06:16:28.995Z,38.63
2019-02-02T06:18:58.748Z,39.70
2019-02-02T06:21:28.485Z,38.43
2019-02-02T06:23:58.241Z,40.43
2019-02-02T06:26:27.977Z,41.40
2019-02-02T06:28:57.735Z,41.33
2019-02-02T06:31:27.470Z,41.67
2019-02-02T06:33:57.303Z,39.00
2019-02-02T06:36:27.117Z,41.23
2019-02-02T06:38:56.896Z,40.90
2019-02-02T06:41:26.628Z,43.63
2019-02-02T06:43:56.389Z,42.77
2019-02-02T06:46:26.137Z,41.27
2019-02-02T06:48:55.894Z,42.83
2019-02-02T06:51:25.700Z,43.93
2019-02-02T06:53:55.477Z,44.70
2019-02-02T06:56:25.219Z,44.20
2019-02-02T06:58:54.981Z,45.57
2019-02-02T07:01:24.749Z,43.40
2019-02-02T07:03:54.480Z,44.13
2019-02-02T07:06:24.214Z,43.47
2019-02-02T07:08:54.045Z,44.77
2019-02-02T07:11:23.802Z,43.23
2019-02-02T07:13:53.543Z,44.00
2019-02-02T07:16:23.270Z,46.57
2019-02-02T07:18:53.031Z,47.97
2019-02-02T07:21:22.754Z,44.87
2019-02-02T07:23:52.540Z,44.13
2019-02-02T07:26:22.270Z,46.33
2019-02-02T07:28:52.098Z,47.77
2019-02-02T07:31:21.833Z,44.87
2019-02-02T07:33:51.584Z,45.10
2019-02-02T07:36:21.317Z,43.10
2019-02-02T07:38:51.090Z,45.47
2019-02-02T07:41:20.818Z,47.60
2019-02-02T07:43:51.568Z,46.23
2019-02-02T07:46:21.280Z,44.57
2019-02-02T07:48:51.055Z,46.37
2019-02-02T07:51:20.786Z,46.17
2019-02-02T07:53:50.517Z,47.33
2019-02-02T07:56:20.286Z,49.67
2019-02-02T07:58:50.049Z,45.93
2019-02-02T08:01:19.785Z,51.97
2019-02-02T08:03:49.535Z,47.57
2019-02-02T08:06:19.259Z,48.77
2019-02-02T08:08:49.022Z,46.37
2019-02-02T08:11:18.780Z,49.80
2019-02-02T08:13:48.503Z,48.93
2019-02-02T08:16:18.262Z,50.63
2019-02-02T08:18:48.124Z,49.37
2019-02-02T08:21:17.858Z,47.63
2019-02-02T08:23:47.610Z,49.80
2019-02-02T08:26:17.369Z,50.90
2019-02-02T08:28:47.110Z,43.67
2019-02-02T08:31:16.871Z,48.90
2019-02-02T08:33:46.640Z,49.03
2019-02-02T08:36:16.382Z,47.13
2019-02-02T08:38:46.128Z,49.80
2019-02-02T08:41:15.874Z,51.03
2019-02-02T08:43:45.618Z,50.87
2019-02-02T08:46:15.392Z,52.57
2019-02-02T08:48:45.168Z,54.23
2019-02-02T08:51:15.001Z,52.57
2019-02-02T08:53:44.743Z,49.77
2019-02-02T08:56:14.491Z,50.50
2019-02-02T08:58:44.248Z,52.57
2019-02-02T09:01:13.989Z,52.20
2019-02-02T09:03:43.821Z,52.63
2019-02-02T09:06:13.543Z,52.00
2019-02-02T09:08:43.306Z,54.10
2019-02-02T09:11:13.086Z,54.30
2019-02-02T09:13:42.828Z,54.53
2019-02-02T09:16:12.621Z,53.37
2019-02-02T09:18:42.376Z,56.30
2019-02-02T09:21:12.155Z,55.70
2019-02-02T09:23:41.900Z,56.13
2019-02-02T09:26:11.721Z,56.23
2019-02-02T09:28:41.510Z,53.97
2019-02-02T09:31:15.793Z,56.30
2019-02-02T09:33:42.790Z,57.17
2019-02-02T09:36:12.569Z,56.27
2019-02-02T09:38:42.301Z,54.00
2019-02-02T09:41:12.164Z,56.33
2019-02-02T09:43:41.907Z,56.57
2019-02-02T09:46:11.675Z,56.73
2019-02-02T09:48:41.431Z,57.33
2019-02-02T09:51:11.212Z,57.90
2019-02-02T09:53:40.964Z,54.13
2019-02-02T09:56:10.717Z,55.30
2019-02-02T09:58:40.545Z,55.50
2019-02-02T10:01:10.396Z,55.63
2019-02-02T10:03:40.171Z,56.07
2019-02-02T10:06:09.917Z,56.43
2019-02-02T10:08:39.760Z,54.77
2019-02-02T10:11:09.561Z,56.17
2019-02-02T10:13:39.344Z,56.03
2019-02-02T10:16:09.133Z,54.70
2019-02-02T10:18:38.884Z,56.13
2019-02-02T10:21:08.663Z,54.83
2019-02-02T10:23:38.417Z,57.13
2019-02-02T10:26:08.277Z,56.97
2019-02-02T10:28:38.008Z,55.10
2019-02-02T10:31:07.793Z,54.77
2019-02-02T10:33:37.556Z,55.70
2019-02-02T10:36:07.326Z,56.13
2019-02-02T10:38:37.146Z,59.40
2019-02-02T10:41:07.025Z,56.63
2019-02-02T10:43:36.849Z,55.17
2019-02-02T10:46:06.727Z,55.23
2019-02-02T10:48:36.447Z,58.17
2019-02-02T10:51:06.230Z,56.30
2019-02-02T10:53:35.991Z,55.30
2019-02-02T10:56:05.771Z,55.23
2019-02-02T10:58:35.517Z,56.03
2019-02-02T11:01:05.302Z,56.43
2019-02-02T11:03:35.051Z,56.90
2019-02-02T11:06:05.003Z,55.53
2019-02-02T11:08:34.797Z,54.13
2019-02-02T11:11:04.830Z,55.50
2019-02-02T11:13:34.592Z,59.67
2019-02-02T11:16:04.419Z,58.53
2019-02-02T11:18:34.624Z,57.47
2019-02-02T11:21:04.449Z,57.30
2019-02-02T11:23:34.178Z,57.03
2019-02-02T11:26:04.029Z,56.93
2019-02-02T11:28:33.808Z,53.77
2019-02-02T11:31:03.551Z,58.57
2019-02-02T11:33:33.365Z,55.50
2019-02-02T11:36:03.151Z,56.83
2019-02-02T11:38:32.896Z,56.53
2019-02-02T11:41:02.688Z,58.43
2019-02-02T11:43:32.444Z,59.47
2019-02-02T11:46:02.213Z,57.70
2019-02-02T11:48:31.963Z,57.87
2019-02-02T11:51:01.745Z,56.90
2019-02-02T11:53:31.559Z,58.77
2019-02-02T11:56:01.415Z,56.73
2019-02-02T11:58:31.131Z,56.73
2019-02-02T12:01:00.909Z,57.53
2019-02-02T12:03:30.652Z,59.70
2019-02-02T12:06:00.445Z,57.23
2019-02-02T12:08:30.216Z,59.17
2019-02-02T12:10:59.996Z,59.37
2019-02-02T12:13:29.740Z,59.50
2019-02-02T12:15:59.575Z,57.93
2019-02-02T12:18:29.324Z,58.23
2019-02-02T12:20:59.078Z,56.83
2019-02-02T12:23:28.823Z,58.80
2019-02-02T12:25:58.616Z,56.90
2019-02-02T12:28:28.350Z,58.10
2019-02-02T12:30:58.113Z,55.83
2019-02-02T12:33:27.882Z,57.97
2019-02-02T12:35:57.661Z,56.17
2019-02-02T12:38:27.408Z,58.00
2019-02-02T12:40:59.629Z,56.97
2019-02-02T12:43:29.596Z,58.73
2019-02-02T12:45:59.432Z,59.33
2019-02-02T12:48:32.219Z,55.97
2019-02-02T12:51:00.640Z,57.33
2019-02-02T12:53:30.378Z,57.33
2019-02-02T12:56:00.181Z,61.40
2019-02-02T12:58:29.920Z,59.23
2019-02-02T13:00:59.706Z,58.13
2019-02-02T13:03:29.455Z,56.77
2019-02-02T13:05:59.202Z,58.00
2019-02-02T13:08:28.952Z,57.73
2019-02-02T13:10:58.750Z,56.40
2019-02-02T13:13:28.634Z,58.93
2019-02-02T13:15:58.369Z,58.70
2019-02-02T13:18:28.218Z,60.53
2019-02-02T13:20:57.982Z,58.10
2019-02-02T13:23:27.754Z,58.30
2019-02-02T13:26:04.872Z,59.37
2019-02-02T13:28:29.022Z,61.10
2019-02-02T13:30:58.754Z,62.70
2019-02-02T13:33:28.544Z,63.00
2019-02-02T13:35:58.315Z,64.00
2019-02-02T13:38:28.115Z,64.60
2019-02-02T13:40:57.872Z,63.93
2019-02-02T13:43:27.645Z,66.77
2019-02-02T13:45:57.376Z,65.30
2019-02-02T13:48:27.149Z,66.03
2019-02-02T13:50:56.889Z,65.17
2019-02-02T13:53:26.704Z,66.10
2019-02-02T13:55:56.464Z,69.23
2019-02-02T13:58:27.222Z,68.03
2019-02-02T14:00:56.946Z,67.20
2019-02-02T14:03:26.718Z,67.83
2019-02-02T14:05:56.466Z,67.93
2019-02-02T14:08:26.237Z,69.03
2019-02-02T14:10:55.973Z,69.37
2019-02-02T14:13:25.755Z,65.73
2019-02-02T14:15:55.536Z,68.33
2019-02-02T14:18:25.263Z,74.67
2019-02-02T14:20:55.065Z,71.17
2019-02-02T14:23:24.836Z,72.83
2019-02-02T14:25:55.538Z,70.77
2019-02-02T14:28:28.443Z,68.17
2019-02-02T14:30:56.870Z,72.30
2019-02-02T14:33:26.664Z,74.87
2019-02-02T14:35:56.423Z,72.27
2019-02-02T14:38:26.209Z,72.80
2019-02-02T14:40:55.964Z,75.07
2019-02-02T14:43:25.737Z,68.03
2019-02-02T14:45:55.470Z,73.97
2019-02-02T14:48:25.223Z,77.97
2019-02-02T14:50:54.963Z,73.30
2019-02-02T14:53:24.733Z,70.43
2019-02-02T14:55:54.482Z,71.23
2019-02-02T14:58:25.151Z,74.63
2019-02-02T15:00:54.963Z,68.40
2019-02-02T15:03:26.172Z,74.37
2019-02-02T15:05:56.091Z,74.03
2019-02-02T15:08:25.863Z,73.00
2019-02-02T15:10:55.647Z,71.13
2019-02-02T15:13:25.360Z,75.03
2019-02-02T15:15:55.097Z,74.40
2019-02-02T15:18:24.871Z,77.07
2019-02-02T15:20:54.631Z,75.93
2019-02-02T15:23:24.381Z,68.93
2019-02-02T15:25:54.133Z,75.23
2019-02-02T15:28:23.917Z,74.47
2019-02-02T15:30:55.355Z,74.53
2019-02-02T15:33:37.206Z,77.53
2019-02-02T15:35:56.720Z,76.33
2019-02-02T15:38:26.472Z,80.73
2019-02-02T15:40:59.147Z,80.50
2019-02-02T15:43:27.735Z,78.53
2019-02-02T15:45:57.514Z,83.03
2019-02-02T15:48:27.359Z,82.17
2019-02-02T15:50:57.133Z,80.73
2019-02-02T15:53:26.984Z,81.10
2019-02-02T15:55:56.785Z,81.77
2019-02-02T15:58:26.707Z,77.13
2019-02-02T16:00:56.645Z,80.57
2019-02-02T16:03:26.431Z,79.50
2019-02-02T16:05:56.192Z,82.03
2019-02-02T16:08:25.960Z,82.17
2019-02-02T16:10:55.722Z,83.97
2019-02-02T16:13:25.505Z,84.10
2019-02-02T16:15:55.428Z,83.33
2019-02-02T16:18:25.273Z,85.17
2019-02-02T16:20:54.998Z,84.87
2019-02-02T16:23:24.775Z,79.50
2019-02-02T16:25:54.533Z,83.07
2019-02-02T16:28:24.336Z,82.47
2019-02-02T16:30:54.134Z,76.43
2019-02-02T16:33:24.262Z,85.93
2019-02-02T16:35:54.045Z,91.00
2019-02-02T16:38:24.028Z,77.27
2019-02-02T16:40:53.836Z,83.13
2019-02-02T16:43:23.599Z,83.70
2019-02-02T16:45:53.385Z,83.47
2019-02-02T16:48:23.216Z,83.87
2019-02-02T16:50:52.939Z,84.50
2019-02-02T16:53:23.780Z,76.30
2019-02-02T16:55:53.599Z,80.73
2019-02-02T16:58:23.385Z,82.20
2019-02-02T17:00:53.312Z,80.47
2019-02-02T17:03:23.070Z,86.40
2019-02-02T17:05:52.871Z,80.73
2019-02-02T17:08:22.613Z,83.87
2019-02-02T17:10:52.505Z,80.43
2019-02-02T17:13:22.244Z,82.23
2019-02-02T17:15:52.084Z,80.23
2019-02-02T17:18:21.818Z,83.93
2019-02-02T17:20:51.588Z,87.27
2019-02-02T17:23:21.428Z,83.57
2019-02-02T17:25:51.278Z,79.97
2019-02-02T17:28:21.055Z,85.20
2019-02-02T17:30:50.899Z,86.77
2019-02-02T17:33:20.639Z,83.90
2019-02-02T17:35:50.439Z,85.13
2019-02-02T17:38:20.202Z,84.13
2019-02-02T17:40:49.976Z,83.10
2019-02-02T17:43:19.908Z,89.57
2019-02-02T17:45:49.702Z,80.53
2019-02-02T17:48:19.432Z,89.27
2019-02-02T17:50:49.221Z,90.90
2019-02-02T17:53:18.966Z,86.93
2019-02-02T17:55:48.815Z,80.63
2019-02-02T17:58:18.634Z,81.10
2019-02-02T18:00:50.048Z,80.57
2019-02-02T18:03:19.814Z,80.80
2019-02-02T18:05:49.630Z,79.50
2019-02-02T18:08:19.377Z,76.27
2019-02-02T18:10:49.129Z,80.97
2019-02-02T18:13:18.888Z,83.50
2019-02-02T18:15:48.645Z,86.57
2019-02-02T18:18:18.425Z,82.10
2019-02-02T18:20:48.260Z,77.87
2019-02-02T18:23:18.687Z,72.53
2019-02-02T18:25:48.534Z,78.63
2019-02-02T18:28:19.551Z,78.10
2019-02-02T18:30:49.299Z,75.73
2019-02-02T18:33:19.134Z,77.30
2019-02-02T18:35:49.997Z,78.57
2019-02-02T18:38:20.379Z,78.03
2019-02-02T18:40:50.192Z,76.33
2019-02-02T18:43:20.002Z,78.87
2019-02-02T18:45:49.864Z,82.10
2019-02-02T18:48:19.610Z,81.60
2019-02-02T18:50:49.480Z,77.43
2019-02-02T18:53:19.285Z,78.83
2019-02-02T18:55:52.008Z,79.37
2019-02-02T18:58:21.873Z,84.07
2019-02-02T19:00:51.657Z,80.70
2019-02-02T19:03:21.516Z,82.17
2019-02-02T19:05:51.384Z,83.87
2019-02-02T19:08:21.137Z,84.17
2019-02-02T19:10:50.931Z,85.07
2019-02-02T19:13:20.745Z,83.13
2019-02-02T19:15:50.554Z,85.00
2019-02-02T19:18:20.320Z,85.43
2019-02-02T19:20:50.219Z,83.90
2019-02-02T19:23:25.459Z,83.37
2019-02-02T19:25:51.607Z,83.47
2019-02-02T19:28:21.373Z,82.30
2019-02-02T19:30:53.551Z,86.10
2019-02-02T19:33:22.703Z,88.27
2019-02-02T19:35:52.553Z,88.47
2019-02-02T19:38:22.325Z,86.80
2019-02-02T19:40:52.108Z,83.93
2019-02-02T19:43:21.861Z,84.20
2019-02-02T19:45:53.731Z,87.00
2019-02-02T19:48:23.202Z,90.03
2019-02-02T19:50:53.006Z,90.13
2019-02-02T19:53:22.755Z,93.73
2019-02-02T19:55:52.570Z,94.50
2019-02-02T19:58:22.388Z,92.77
2019-02-02T20:00:52.176Z,91.80
2019-02-02T20:03:22.014Z,92.73
2019-02-02T20:05:51.917Z,92.87
2019-02-02T20:08:21.693Z,93.33
2019-02-02T20:10:51.587Z,87.40
2019-02-02T20:13:21.407Z,91.30
2019-02-02T20:15:51.223Z,93.07
2019-02-02T20:18:21.003Z,89.93
2019-02-02T20:20:50.766Z,93.90
2019-02-02T20:23:20.614Z,90.77
2019-02-02T20:25:50.389Z,93.43
2019-02-02T20:28:20.265Z,95.03
2019-02-02T20:30:50.248Z,92.30
2019-02-02T20:33:20.522Z,96.57
2019-02-02T20:35:50.262Z,97.40
2019-02-02T20:38:20.035Z,93.67
2019-02-02T20:40:49.787Z,91.10
2019-02-02T20:43:19.589Z,94.97
2019-02-02T20:45:49.318Z,95.67
2019-02-02T20:48:19.139Z,94.43
2019-02-02T20:50:48.861Z,96.33
2019-02-02T20:53:19.039Z,89.57
2019-02-02T20:55:48.800Z,93.73
2019-02-02T20:58:18.588Z,90.13
2019-02-02T21:00:49.381Z,89.63
2019-02-02T21:03:19.157Z,93.07
2019-02-02T21:05:52.553Z,90.57
2019-02-02T21:08:20.775Z,91.97
2019-02-02T21:10:50.523Z,91.20
2019-02-02T21:13:20.319Z,87.80
2019-02-02T21:15:50.055Z,93.57
2019-02-02T21:18:20.220Z,90.50
2019-02-02T21:20:49.972Z,92.50
2019-02-02T21:23:19.752Z,90.57
2019-02-02T21:25:49.468Z,89.80
2019-02-02T21:28:19.282Z,89.60
2019-02-02T21:30:49.464Z,87.80
2019-02-02T21:33:19.237Z,92.53
2019-02-02T21:35:49.100Z,91.90
2019-02-02T21:38:18.844Z,90.73
2019-02-02T21:40:48.597Z,85.97
2019-02-02T21:43:18.726Z,83.13
2019-02-02T21:45:48.559Z,90.97
2019-02-02T21:48:18.306Z,88.00
2019-02-02T21:50:48.042Z,85.87
2019-02-02T21:53:17.824Z,89.97
2019-02-02T21:55:47.577Z,86.97
2019-02-02T21:58:17.424Z,88.63
2019-02-02T22:00:47.185Z,87.37
2019-02-02T22:03:16.954Z,90.53
2019-02-02T22:05:46.695Z,84.87
2019-02-02T22:08:16.483Z,83.93
2019-02-02T22:10:46.254Z,81.90
2019-02-02T22:13:16.023Z,81.70
2019-02-02T22:15:45.775Z,82.93
2019-02-02T22:18:15.542Z,83.13
2019-02-02T22:20:45.302Z,81.57
2019-02-02T22:23:15.230Z,80.83
2019-02-02T22:25:44.987Z,80.70
2019-02-02T22:28:14.757Z,81.30
2019-02-02T22:30:44.591Z,80.43
2019-02-02T22:33:14.400Z,83.07
2019-02-02T22:35:44.443Z,81.70
2019-02-02T22:38:14.329Z,79.83
2019-02-02T22:40:44.151Z,77.90
2019-02-02T22:43:14.055Z,81.17
2019-02-02T22:45:43.788Z,79.13
2019-02-02T22:48:13.959Z,80.80
2019-02-02T22:50:43.865Z,81.43
2019-02-02T22:53:14.544Z,76.40
2019-02-02T22:55:44.295Z,78.13
2019-02-02T22:58:14.091Z,72.03
2019-02-02T23:01:03.343Z,80.67
2019-02-02T23:03:57.497Z,79.30
2019-02-02T23:06:45.716Z,77.03
2019-02-02T23:09:30.476Z,74.63
2019-02-02T23:12:12.537Z,76.53
2019-02-02T23:15:10.321Z,76.20
2019-02-02T23:17:40.179Z,72.73
2019-02-02T23:20:09.946Z,74.10
2019-02-02T23:22:39.700Z,75.87
2019-02-02T23:25:09.460Z,76.30
2019-02-02T23:27:39.238Z,75.17
2019-02-02T23:30:16.230Z,75.50
2019-02-02T23:32:45.964Z,74.33
2019-02-02T23:35:15.728Z,72.33
2019-02-02T23:37:45.479Z,69.27
2019-02-02T23:40:15.247Z,72.43
2019-02-02T23:42:45.355Z,75.63
2019-02-02T23:45:15.189Z,70.37
2019-02-02T23:47:44.926Z,74.17
2019-02-02T23:50:14.682Z,72.17
2019-02-02T23:52:44.423Z,73.43
2019-02-02T23:55:14.201Z,73.10
2019-02-02T23:57:44.016Z,73.50
